Blue Galaxy — SWDA — position and weather

sailwx.info

Track history (hours):
 
Tides and Currents Weather Stations Pressure Air Temp Water Temp Dewpoint Dewpoint Depression Visibility Wind Speed Wind Dir Waves Ship Positions

Blue Galaxy

Last reported at 2017-Mar-26 08:31 UTC. Time now 2017-Mar-26 09:06 UTC.
Position N 37°56' E 023°38'.

Length 192 m; draft 6.7 m.

Type: Passenger vessel. MMSI: 239672000.

Date/timePositionNaut miles runAvg speedWind from/ knotsBaromVisibWave heightAir tempDewpointWater temp
2017-Mar-26 08:31N 37°56' E 023°38'0 0.0
2017-Mar-26 07:31N 37°56' E 023°38'0 0.0
2017-Mar-26 06:31N 37°56' E 023°38'0 0.0
2017-Mar-26 05:31N 37°56' E 023°38'0 0.0
2017-Mar-26 04:31N 37°56' E 023°38'0 0.0
2017-Mar-26 03:31N 37°56' E 023°38'8 8.1
2017-Mar-26 02:33N 37°49' E 023°41'2019.8
2017-Mar-26 01:33N 37°30' E 023°48'2220.0
2017-Mar-26 00:27N 37°09' E 023°55'28 1.0
2017-Mar-24 20:33N 37°36' E 023°43'1919.2
2017-Mar-24 19:33N 37°54' E 023°37'2 2.3
2017-Mar-24 18:33N 37°56' E 023°38'0 0.0
2017-Mar-24 17:33N 37°56' E 023°38'0 0.0
2017-Mar-24 16:29N 37°56' E 023°38'0 0.0
2017-Mar-24 15:32N 37°56' E 023°38'0 0.0
2017-Mar-24 14:32N 37°56' E 023°38'0 0.0
2017-Mar-24 13:29N 37°56' E 023°38'0 0.0
2017-Mar-24 12:29N 37°56' E 023°38'0 0.0
2017-Mar-24 11:32N 37°56' E 023°38'0 0.0
2017-Mar-24 10:29N 37°56' E 023°38'0 0.0
2017-Mar-24 09:32N 37°56' E 023°38'0 0.0
2017-Mar-24 08:32N 37°56' E 023°38'0 0.0
2017-Mar-24 07:32N 37°56' E 023°38'0 0.0
2017-Mar-24 06:32N 37°56' E 023°38'0 0.0
2017-Mar-24 05:32N 37°56' E 023°38'0 0.0
2017-Mar-24 04:32N 37°56' E 023°38'0 0.0
2017-Mar-24 03:33N 37°56' E 023°38'1515.2
2017-Mar-24 02:34N 37°42' E 023°44'1919.2
2017-Mar-24 01:34N 37°24' E 023°51'14 0.5
2017-Mar-22 20:33N 37°36' E 023°43'1919.1
2017-Mar-22 19:34N 37°54' E 023°37'2 2.4
2017-Mar-22 18:33N 37°56' E 023°38'0 0.0
2017-Mar-22 12:20N 37°56' E 023°38'0 0.0
2017-Mar-22 10:30N 37°56' E 023°38'0 0.0
2017-Mar-22 08:12N 37°56' E 023°38'0 0.0
2017-Mar-22 04:21N 37°56' E 023°38'0 0.1
2017-Mar-22 03:33N 37°56' E 023°38'1716.8
2017-Mar-22 02:33N 37°41' E 023°46'4 0.1
2017-Mar-20 20:27N 37°38' E 023°42'1718.8
2017-Mar-20 19:33N 37°55' E 023°37'2 2.0
2017-Mar-20 18:33N 37°56' E 023°38'0 0.0
2017-Mar-20 17:22N 37°56' E 023°38'0 0.0
2017-Mar-20 16:22N 37°56' E 023°38'0 0.0
2017-Mar-20 15:28N 37°56' E 023°38'0 0.0
2017-Mar-20 14:31N 37°56' E 023°38'0 0.0
2017-Mar-20 13:32N 37°56' E 023°38'0 0.0
2017-Mar-20 11:14N 37°56' E 023°38'0 0.0
2017-Mar-20 10:29N 37°56' E 023°38'0 0.0
2017-Mar-20 09:32N 37°56' E 023°38'0 0.0
2017-Mar-20 08:32N 37°56' E 023°38'0 0.0
2017-Mar-20 07:29N 37°56' E 023°38'0 0.0
2017-Mar-20 06:32N 37°56' E 023°38'0 0.0
2017-Mar-20 05:31N 37°56' E 023°38'0 0.0
2017-Mar-20 04:28N 37°56' E 023°38'0 0.1
2017-Mar-20 03:34N 37°56' E 023°38'1716.6
2017-Mar-20 02:33N 37°41' E 023°45'2019.7
2017-Mar-20 01:33N 37°22' E 023°51'16 0.5
2017-Mar-18 20:31N 37°36' E 023°43'1819.2
2017-Mar-18 19:33N 37°54' E 023°37'3 2.8
2017-Mar-18 18:33N 37°56' E 023°38'0 0.0
2017-Mar-18 17:29N 37°56' E 023°38'0 0.0
2017-Mar-18 16:23N 37°56' E 023°38'0 0.0
2017-Mar-18 15:29N 37°56' E 023°38'0 0.0
2017-Mar-18 14:29N 37°56' E 023°38'0 0.0
2017-Mar-18 13:32N 37°56' E 023°38'0 0.0
2017-Mar-18 12:32N 37°56' E 023°38'0 0.0
2017-Mar-18 11:30N 37°56' E 023°38'0 0.0
2017-Mar-18 10:32N 37°56' E 023°38'0 0.0
2017-Mar-18 09:32N 37°56' E 023°38'0 0.0
2017-Mar-18 08:29N 37°56' E 023°38'0 0.0
2017-Mar-18 06:32N 37°56' E 023°38'0 0.0
2017-Mar-18 05:26N 37°56' E 023°38'0 0.0
2017-Mar-18 04:32N 37°56' E 023°38'0 0.1
2017-Mar-18 03:33N 37°56' E 023°38'1616.3
2017-Mar-18 02:33N 37°41' E 023°46'4 0.1
2017-Mar-16 20:26N 37°39' E 023°42'1718.8
2017-Mar-16 19:34N 37°55' E 023°37'2 1.7
2017-Mar-16 18:33N 37°56' E 023°38'0 0.0
2017-Mar-16 17:19N 37°56' E 023°38'0 0.0
2017-Mar-16 16:32N 37°56' E 023°38'0 0.0
2017-Mar-16 15:32N 37°56' E 023°38'0 0.0
2017-Mar-16 14:32N 37°56' E 023°38'0 0.0
2017-Mar-16 13:31N 37°56' E 023°38'0 0.0
2017-Mar-16 12:31N 37°56' E 023°38'0 0.0
2017-Mar-16 11:31N 37°56' E 023°38'0 0.0
2017-Mar-16 10:30N 37°56' E 023°38'0 0.0
2017-Mar-16 09:27N 37°56' E 023°38'0 0.0
2017-Mar-16 08:33N 37°56' E 023°38'  
Track history (hours):
 
Tides and Currents Weather Stations Pressure Air Temp Water Temp Dewpoint Dewpoint Depression Visibility Wind Speed Wind Dir Waves Ship Positions

Blue Galaxy

Last reported at 2017-Mar-26 08:31 UTC. Time now 2017-Mar-26 09:06 UTC.
Position N 37°56' E 023°38'.

Length 192 m; draft 6.7 m.

Type: Passenger vessel. MMSI: 239672000.

Date/timePositionNaut miles runAvg speedWind from/ knotsBaromVisibWave heightAir tempDewpointWater temp
2017-Mar-26 08:31N 37°56' E 023°38'0 0.0
2017-Mar-26 07:31N 37°56' E 023°38'0 0.0
2017-Mar-26 06:31N 37°56' E 023°38'0 0.0
2017-Mar-26 05:31N 37°56' E 023°38'0 0.0
2017-Mar-26 04:31N 37°56' E 023°38'0 0.0
2017-Mar-26 03:31N 37°56' E 023°38'8 8.1
2017-Mar-26 02:33N 37°49' E 023°41'2019.8
2017-Mar-26 01:33N 37°30' E 023°48'2220.0
2017-Mar-26 00:27N 37°09' E 023°55'28 1.0
2017-Mar-24 20:33N 37°36' E 023°43'1919.2
2017-Mar-24 19:33N 37°54' E 023°37'2 2.3
2017-Mar-24 18:33N 37°56' E 023°38'0 0.0
2017-Mar-24 17:33N 37°56' E 023°38'0 0.0
2017-Mar-24 16:29N 37°56' E 023°38'0 0.0
2017-Mar-24 15:32N 37°56' E 023°38'0 0.0
2017-Mar-24 14:32N 37°56' E 023°38'0 0.0
2017-Mar-24 13:29N 37°56' E 023°38'0 0.0
2017-Mar-24 12:29N 37°56' E 023°38'0 0.0
2017-Mar-24 11:32N 37°56' E 023°38'0 0.0
2017-Mar-24 10:29N 37°56' E 023°38'0 0.0
2017-Mar-24 09:32N 37°56' E 023°38'0 0.0
2017-Mar-24 08:32N 37°56' E 023°38'0 0.0
2017-Mar-24 07:32N 37°56' E 023°38'0 0.0
2017-Mar-24 06:32N 37°56' E 023°38'0 0.0
2017-Mar-24 05:32N 37°56' E 023°38'0 0.0
2017-Mar-24 04:32N 37°56' E 023°38'0 0.0
2017-Mar-24 03:33N 37°56' E 023°38'1515.2
2017-Mar-24 02:34N 37°42' E 023°44'1919.2
2017-Mar-24 01:34N 37°24' E 023°51'14 0.5
2017-Mar-22 20:33N 37°36' E 023°43'1919.1
2017-Mar-22 19:34N 37°54' E 023°37'2 2.4
2017-Mar-22 18:33N 37°56' E 023°38'0 0.0
2017-Mar-22 12:20N 37°56' E 023°38'0 0.0
2017-Mar-22 10:30N 37°56' E 023°38'0 0.0
2017-Mar-22 08:12N 37°56' E 023°38'0 0.0
2017-Mar-22 04:21N 37°56' E 023°38'0 0.1
2017-Mar-22 03:33N 37°56' E 023°38'1716.8
2017-Mar-22 02:33N 37°41' E 023°46'4 0.1
2017-Mar-20 20:27N 37°38' E 023°42'1718.8
2017-Mar-20 19:33N 37°55' E 023°37'2 2.0
2017-Mar-20 18:33N 37°56' E 023°38'0 0.0
2017-Mar-20 17:22N 37°56' E 023°38'0 0.0
2017-Mar-20 16:22N 37°56' E 023°38'0 0.0
2017-Mar-20 15:28N 37°56' E 023°38'0 0.0
2017-Mar-20 14:31N 37°56' E 023°38'0 0.0
2017-Mar-20 13:32N 37°56' E 023°38'0 0.0
2017-Mar-20 11:14N 37°56' E 023°38'0 0.0
2017-Mar-20 10:29N 37°56' E 023°38'0 0.0
2017-Mar-20 09:32N 37°56' E 023°38'0 0.0
2017-Mar-20 08:32N 37°56' E 023°38'0 0.0
2017-Mar-20 07:29N 37°56' E 023°38'0 0.0
2017-Mar-20 06:32N 37°56' E 023°38'0 0.0
2017-Mar-20 05:31N 37°56' E 023°38'0 0.0
2017-Mar-20 04:28N 37°56' E 023°38'0 0.1
2017-Mar-20 03:34N 37°56' E 023°38'1716.6
2017-Mar-20 02:33N 37°41' E 023°45'2019.7
2017-Mar-20 01:33N 37°22' E 023°51'16 0.5
2017-Mar-18 20:31N 37°36' E 023°43'1819.2
2017-Mar-18 19:33N 37°54' E 023°37'3 2.8
2017-Mar-18 18:33N 37°56' E 023°38'0 0.0
2017-Mar-18 17:29N 37°56' E 023°38'0 0.0
2017-Mar-18 16:23N 37°56' E 023°38'0 0.0
2017-Mar-18 15:29N 37°56' E 023°38'0 0.0
2017-Mar-18 14:29N 37°56' E 023°38'0 0.0
2017-Mar-18 13:32N 37°56' E 023°38'0 0.0
2017-Mar-18 12:32N 37°56' E 023°38'0 0.0
2017-Mar-18 11:30N 37°56' E 023°38'0 0.0
2017-Mar-18 10:32N 37°56' E 023°38'0 0.0
2017-Mar-18 09:32N 37°56' E 023°38'0 0.0
2017-Mar-18 08:29N 37°56' E 023°38'0 0.0
2017-Mar-18 06:32N 37°56' E 023°38'0 0.0
2017-Mar-18 05:26N 37°56' E 023°38'0 0.0
2017-Mar-18 04:32N 37°56' E 023°38'0 0.1
2017-Mar-18 03:33N 37°56' E 023°38'1616.3
2017-Mar-18 02:33N 37°41' E 023°46'4 0.1
2017-Mar-16 20:26N 37°39' E 023°42'1718.8
2017-Mar-16 19:34N 37°55' E 023°37'2 1.7
2017-Mar-16 18:33N 37°56' E 023°38'0 0.0
2017-Mar-16 17:19N 37°56' E 023°38'0 0.0
2017-Mar-16 16:32N 37°56' E 023°38'0 0.0
2017-Mar-16 15:32N 37°56' E 023°38'0 0.0
2017-Mar-16 14:32N 37°56' E 023°38'0 0.0
2017-Mar-16 13:31N 37°56' E 023°38'0 0.0
2017-Mar-16 12:31N 37°56' E 023°38'0 0.0
2017-Mar-16 11:31N 37°56' E 023°38'0 0.0
2017-Mar-16 10:30N 37°56' E 023°38'0 0.0
2017-Mar-16 09:27N 37°56' E 023°38'0 0.0
2017-Mar-16 08:33N 37°56' E 023°38'  

Dump ship's entire track history